Casper, WY

9:37 AM MST on December 10, 2016 (GMT -0700)
North of Casper, WY | | Change Station
Active Advisory: High Wind Warning

Elev 5276 ft 42.91 °N, 106.35 °W | Updated 2 seconds ago

Clear
Clear
39.0 °F
Feels Like 29 °F
N
21.0
Wind Variable Wind from SW
Gusts 27.0 mph

Today
High -- | Low -- °F
--% Chance of Precip.
Yesterday
High -- | Low -- °F
Precip. -- in
Pressure 29.90 in
Visibility 10.0 miles
Clouds Clear
Windchill 29 °F
Dew Point 28 °F
Humidity 65%
Rainfall 0.05 in
Snow Depth Not available.
7:26 AM 4:31 PM
Waxing Gibbous, 84% visible
METAR KCPR 101553Z 21023G38KT 10SM CLR 02/M03 A2976 RMK AO2 PK WND 21038/1521 SLP124 T00221033 $
Pressure 29.90 in
Visibility 10.0 miles
Clouds Clear
Windchill 29 °F
Dew Point 28 °F
Humidity 65%
Rainfall 0.05 in
Snow Depth Not available.
7:26 AM 4:31 PM
Waxing Gibbous, 84% visible
METAR KCPR 101553Z 21023G38KT 10SM CLR 02/M03 A2976 RMK AO2 PK WND 21038/1521 SLP124 T00221033 $

10-Day Weather Forecast

Almanac

Astronomy

Dec. 10, 2016 Rise Set
Actual Time
Civil Twilight
Nautical Twilight
Astronomical Twilight
Moon
Length of Visible Light
Length of Day
Tomorrow will be .
, % of the Moon is Illuminated

Today's Extremes

State Highs State Lows

Community

WunderPhotos

Upload Photos

1,956,569 photos uploaded!

WunderBlog® & News

Nearby

Air Quality

  Air Quality AQ Index Pollutant
Not available.

Snow Depth

Station Depth Elevation

Earthquake Activity

City Distance Mag. Time & Date
Minimum magnitude displayed is 2.5.

Coastal Water Temperatures

Place Temperature

Stations

Nearby Weather Stations

Station Location Temp. Windchill Dew Point Humidity Wind Precip. Elev Updated Type
                   

Watches & Warnings

High Wind Warning
Issued: 2:07 AM MST Dec. 10, 2016 – National Weather Service

... High Wind Warning remains in effect until 6 PM MST this
evening...

* timing... a southwest wind will increase this morning and stay
strong through this afternoon.

* Winds... southwest 30 to 40 mph with gusts to 60 mph.

* Impacts... travelers from South Pass... to Sweetwater Station...
to Muddy Gap... and on to Casper will experience very strong
cross winds and sudden gusts. Additionally... the wind will
cause some blowing and drifting snow with sharp reductions to
visibility at times. This will be most noticeable around the
Casper area where the snow cover is deeper.

Precautionary/preparedness actions...

A High Wind Warning means a hazardous high wind event is expected
or occurring. Sustained wind speeds of at least 40 mph or gusts
of 58 mph or more can lead to property damage.